Time;durP1;ratioP1;P1;durP2;ratioP2;P2;SDS_P1;SDS_P2;PMS_P1;PMS_P2;Temp;Humidity;BMP_temperature;BMP_pressure;BME280_temperature;BME280_humidity;BME280_pressure;Samples;Min_cycle;Max_cycle;Signal;HPM_P1;HPM_P2
2024/03/04 00:01:27;;;;;;;;;;;;;;;6.89;100.00;94256.53;10363418;28;2283;-77
2024/03/04 00:06:30;;;;;;;;;;;;;;;6.77;100.00;94254.28;10354334;28;2170;-69
2024/03/04 00:11:34;;;;;;;;;;;;;;;6.64;100.00;94255.78;10364905;28;2049;-68
2024/03/04 00:16:36;;;;;;;;;;;;;;;6.56;100.00;94261.75;10355543;28;2046;-68
2024/03/04 00:21:39;;;;;;;;;;;;;;;6.53;100.00;94261.50;10362479;28;1881;-68
2024/03/04 00:26:42;;;;;;;;;;;;;;;6.56;100.00;94266.28;10362135;28;2129;-68
2024/03/04 00:31:45;;;;;;;;;;;;;;;6.56;100.00;94266.28;10363736;28;1928;-69
2024/03/04 00:36:49;;;;;;;;;;;;;;;6.54;100.00;94269.22;10364490;28;2038;-67
2024/03/04 00:41:54;;;;;;;;;;;;;;;6.46;100.00;94273.31;10359994;28;2002;-68
2024/03/04 00:46:57;;;;;;;;;;;;;;;6.47;100.00;94276.78;10360585;28;2312;-67
2024/03/04 00:52:00;;;;;;;;;;;;;;;6.43;100.00;94273.91;10357478;28;2194;-67
2024/03/04 00:57:04;;;;;;;;;;;;;;;6.38;100.00;94275.84;10355719;28;1993;-68
2024/03/04 01:02:07;;;;;;;;;;;;;;;6.27;100.00;94264.47;10365910;28;1975;-68
2024/03/04 01:07:14;;;;;;;;;;;;;;;6.29;100.00;94277.50;10367461;28;2009;-68
2024/03/04 01:12:17;;;;;;;;;;;;;;;6.22;100.00;94283.19;10361126;28;1909;-67
2024/03/04 01:17:21;;;;;;;;;;;;;;;6.17;100.00;94288.56;10356881;28;2015;-69
2024/03/04 01:22:25;;;;;;;;;;;;;;;6.12;100.00;94280.63;10357381;28;2081;-67
2024/03/04 01:27:28;;;;;;;;;;;;;;;6.03;100.00;94282.31;10354960;28;2300;-67
2024/03/04 01:32:30;;;;;;;;;;;;;;;5.92;100.00;94286.94;10363771;28;2106;-67
2024/03/04 01:37:34;;;;;;;;;;;;;;;5.81;100.00;94294.22;10358840;28;2262;-68
2024/03/04 01:42:37;;;;;;;;;;;;;;;5.82;100.00;94298.47;10353650;28;2186;-67
2024/03/04 01:47:40;;;;;;;;;;;;;;;5.81;100.00;94298.75;10359860;28;2120;-67
2024/03/04 01:52:43;;;;;;;;;;;;;;;5.67;100.00;94307.38;10357726;28;2064;-68
2024/03/04 01:57:46;;;;;;;;;;;;;;;5.54;100.00;94309.88;10358942;28;1982;-68
2024/03/04 02:02:49;;;;;;;;;;;;;;;5.57;100.00;94317.31;10352529;28;2101;-67
2024/03/04 02:07:52;;;;;;;;;;;;;;;5.54;100.00;94309.88;10358010;28;2129;-68
2024/03/04 02:12:56;;;;;;;;;;;;;;;5.41;100.00;94325.44;10358170;28;1960;-67
2024/03/04 02:18:00;;;;;;;;;;;;;;;5.28;100.00;94330.53;10357417;28;2269;-67
2024/03/04 02:23:06;;;;;;;;;;;;;;;5.19;100.00;94340.19;10364797;28;1937;-67
2024/03/04 02:28:08;;;;;;;;;;;;;;;5.07;100.00;94335.97;10362234;28;2315;-67
2024/03/04 02:33:12;;;;;;;;;;;;;;;5.02;100.00;94335.22;10358729;28;2008;-68
2024/03/04 02:38:14;;;;;;;;;;;;;;;4.93;100.00;94337.66;10364299;28;2134;-70
2024/03/04 02:43:17;;;;;;;;;;;;;;;4.89;100.00;94328.59;10355749;28;1990;-68
2024/03/04 02:48:20;;;;;;;;;;;;;;;4.86;100.00;94342.47;10357260;28;2276;-67
2024/03/04 02:53:23;;;;;;;;;;;;;;;4.88;100.00;94357.09;10365721;28;1938;-67
2024/03/04 02:58:27;;;;;;;;;;;;;;;4.84;100.00;94366.72;10361596;28;1963;-67
2024/03/04 03:03:30;;;;;;;;;;;;;;;4.77;100.00;94362.72;10370933;28;1945;-67
2024/03/04 03:08:33;;;;;;;;;;;;;;;4.66;100.00;94374.50;10354910;28;2043;-68
2024/03/04 03:13:38;;;;;;;;;;;;;;;4.67;100.00;94382.19;10362128;28;2298;-67
2024/03/04 03:18:41;;;;;;;;;;;;;;;4.60;100.00;94392.34;10357031;28;1937;-68
2024/03/04 03:23:44;;;;;;;;;;;;;;;4.60;100.00;94403.78;10349670;28;2234;-68
2024/03/04 03:28:46;;;;;;;;;;;;;;;4.70;100.00;94404.81;10353123;28;1966;-68
2024/03/04 03:33:49;;;;;;;;;;;;;;;4.64;100.00;94405.88;10359949;28;2094;-67
2024/03/04 03:38:52;;;;;;;;;;;;;;;4.55;100.00;94419.75;10355424;28;2196;-66
2024/03/04 03:43:56;;;;;;;;;;;;;;;4.51;100.00;94439.97;10353446;28;2383;-68
2024/03/04 03:49:01;;;;;;;;;;;;;;;4.56;100.00;94452.47;10354059;28;2109;-69
2024/03/04 03:54:04;;;;;;;;;;;;;;;4.70;100.00;94450.84;10361228;28;1917;-76
2024/03/04 03:59:08;;;;;;;;;;;;;;;4.85;100.00;94458.84;10357822;28;2139;-72
2024/03/04 04:04:10;;;;;;;;;;;;;;;5.22;100.00;94456.88;10354603;28;2074;-69
2024/03/04 04:09:13;;;;;;;;;;;;;;;5.26;100.00;94456.03;10359268;28;2072;-74
2024/03/04 04:14:15;;;;;;;;;;;;;;;5.22;100.00;94459.53;10363121;28;1925;-67
2024/03/04 04:19:18;;;;;;;;;;;;;;;5.24;100.00;94465.38;10368358;28;2057;-67
2024/03/04 04:24:21;;;;;;;;;;;;;;;5.34;100.00;94460.84;10375099;28;1827;-67
2024/03/04 04:29:24;;;;;;;;;;;;;;;5.32;100.00;94478.94;10358186;28;2108;-70
2024/03/04 04:34:26;;;;;;;;;;;;;;;5.31;100.00;94493.34;10378594;28;2132;-68
2024/03/04 04:39:29;;;;;;;;;;;;;;;5.33;100.00;94504.50;10358587;28;2121;-68
2024/03/04 04:44:32;;;;;;;;;;;;;;;5.31;100.00;94517.31;10376643;28;1965;-69
2024/03/04 04:49:34;;;;;;;;;;;;;;;5.31;100.00;94519.19;10358302;28;1926;-67
2024/03/04 04:54:38;;;;;;;;;;;;;;;5.26;100.00;94532.50;10362573;28;1912;-67
2024/03/04 04:59:41;;;;;;;;;;;;;;;5.24;100.00;94555.97;10356089;28;2895;-67
2024/03/04 05:04:44;;;;;;;;;;;;;;;5.23;100.00;94559.72;10360615;28;2125;-68
2024/03/04 05:09:59;;;;;;;;;;;;;;;5.21;100.00;94578.59;10362887;28;2118;-66
2024/03/04 05:15:04;;;;;;;;;;;;;;;5.20;100.00;94598.31;10362960;28;2311;-66
2024/03/04 05:20:09;;;;;;;;;;;;;;;5.20;100.00;94614.31;10356482;28;2072;-67
2024/03/04 05:25:12;;;;;;;;;;;;;;;5.16;100.00;94623.94;10363581;28;2153;-69
2024/03/04 05:30:15;;;;;;;;;;;;;;;5.14;100.00;94629.50;10373700;28;1983;-67
2024/03/04 05:35:18;;;;;;;;;;;;;;;5.11;100.00;94631.91;10361907;28;2140;-68
2024/03/04 05:40:21;;;;;;;;;;;;;;;5.10;100.00;94639.09;10359986;28;2556;-67
2024/03/04 05:45:25;;;;;;;;;;;;;;;5.14;100.00;94655.34;10365924;28;1997;-69
2024/03/04 05:50:28;;;;;;;;;;;;;;;5.13;100.00;94661.72;10359471;28;1937;-69
2024/03/04 05:55:36;;;;;;;;;;;;;;;5.30;100.00;94666.81;10358079;28;2049;-66
2024/03/04 06:00:39;;;;;;;;;;;;;;;5.49;100.00;94669.72;10357544;28;1904;-67
2024/03/04 06:05:42;;;;;;;;;;;;;;;5.53;100.00;94679.56;10361047;28;1892;-68
2024/03/04 06:10:44;;;;;;;;;;;;;;;5.53;100.00;94684.91;10366291;28;2008;-69
2024/03/04 06:15:47;;;;;;;;;;;;;;;5.59;100.00;94693.69;10357003;28;2184;-69
2024/03/04 06:20:49;;;;;;;;;;;;;;;5.70;100.00;94693.41;10355344;28;2521;-70
2024/03/04 06:25:52;;;;;;;;;;;;;;;5.89;100.00;94711.53;10360133;28;2133;-71
2024/03/04 06:30:55;;;;;;;;;;;;;;;5.96;100.00;94707.53;10356361;28;2045;-69
2024/03/04 06:36:00;;;;;;;;;;;;;;;6.12;100.00;94710.97;10365521;28;2270;-69
2024/03/04 06:41:03;;;;;;;;;;;;;;;6.24;100.00;94721.34;10355522;28;2073;-66
2024/03/04 06:46:07;;;;;;;;;;;;;;;6.42;100.00;94736.75;10352282;28;2019;-68
2024/03/04 06:51:10;;;;;;;;;;;;;;;6.57;100.00;94738.59;10359309;28;1940;-69
2024/03/04 06:56:13;;;;;;;;;;;;;;;6.70;100.00;94742.53;10365872;28;1909;-68
2024/03/04 07:01:16;;;;;;;;;;;;;;;6.65;100.00;94745.22;10349520;28;2066;-69
2024/03/04 07:06:20;;;;;;;;;;;;;;;6.85;100.00;94745.13;10356205;28;2477;-68
2024/03/04 07:11:25;;;;;;;;;;;;;;;6.95;100.00;94766.44;10351786;28;2141;-67
2024/03/04 07:16:28;;;;;;;;;;;;;;;7.21;100.00;94766.31;10358046;28;2145;-69
2024/03/04 07:21:31;;;;;;;;;;;;;;;7.26;100.00;94758.25;10352109;28;2202;-69
2024/03/04 07:26:34;;;;;;;;;;;;;;;7.39;100.00;94764.88;10363038;28;2037;-68
2024/03/04 07:31:36;;;;;;;;;;;;;;;7.69;100.00;94779.88;10350932;28;2071;-68
2024/03/04 07:36:43;;;;;;;;;;;;;;;7.77;100.00;94790.00;10361571;28;2047;-68
2024/03/04 07:41:46;;;;;;;;;;;;;;;7.82;100.00;94795.28;10357791;28;2132;-67
2024/03/04 07:46:50;;;;;;;;;;;;;;;7.77;100.00;94795.34;10354869;28;2472;-69
2024/03/04 07:51:54;;;;;;;;;;;;;;;8.00;100.00;94804.50;10364555;28;2074;-69
2024/03/04 07:56:56;;;;;;;;;;;;;;;7.98;100.00;94804.81;10357460;28;2112;-69
2024/03/04 08:02:08;;;;;;;;;;;;;;;8.37;100.00;94811.97;10363146;28;1882;-68
2024/03/04 08:07:12;;;;;;;;;;;;;;;8.17;100.00;94806.78;10359786;28;2090;-68
2024/03/04 08:12:16;;;;;;;;;;;;;;;8.08;100.00;94812.75;10360346;28;2048;-71
2024/03/04 08:17:19;;;;;;;;;;;;;;;8.10;100.00;94818.63;10363155;28;1970;-69
2024/03/04 08:22:27;;;;;;;;;;;;;;;8.29;100.00;94821.41;10360677;28;2226;-70
2024/03/04 08:27:29;;;;;;;;;;;;;;;8.26;100.00;94826.50;10356640;28;2014;-69
2024/03/04 08:32:32;;;;;;;;;;;;;;;8.41;100.00;94829.09;10358883;28;2284;-69
2024/03/04 08:37:35;;;;;;;;;;;;;;;8.61;100.00;94828.88;10361025;28;2098;-69
2024/03/04 08:42:37;;;;;;;;;;;;;;;8.61;100.00;94834.25;10367116;28;2427;-67
2024/03/04 08:47:40;;;;;;;;;;;;;;;8.53;100.00;94848.25;10357463;28;1938;-69
2024/03/04 08:52:43;;;;;;;;;;;;;;;8.64;100.00;94843.56;10365285;28;1948;-68
2024/03/04 08:57:47;;;;;;;;;;;;;;;8.62;100.00;94851.09;10371378;28;2001;-69
2024/03/04 09:02:51;;;;;;;;;;;;;;;8.50;100.00;94858.72;10374508;28;1994;-70
2024/03/04 09:07:53;;;;;;;;;;;;;;;8.37;100.00;94863.66;10362229;28;1953;-70
2024/03/04 09:12:58;;;;;;;;;;;;;;;8.56;100.00;94874.47;10355123;28;2003;-69
2024/03/04 09:18:00;;;;;;;;;;;;;;;8.46;100.00;94874.56;10354596;28;2177;-69
2024/03/04 09:23:04;;;;;;;;;;;;;;;8.54;100.00;94868.59;10355186;28;2123;-75
2024/03/04 09:28:07;;;;;;;;;;;;;;;8.61;100.00;94874.41;10361540;28;2630;-69
2024/03/04 09:33:11;;;;;;;;;;;;;;;8.63;100.00;94885.63;10351559;28;2121;-68
2024/03/04 09:38:17;;;;;;;;;;;;;;;8.79;100.00;94883.63;10352126;28;2128;-72
2024/03/04 09:43:20;;;;;;;;;;;;;;;9.04;100.00;94885.25;10361694;28;2030;-68
2024/03/04 09:48:23;;;;;;;;;;;;;;;9.29;100.00;94877.97;10362570;28;1877;-71
2024/03/04 09:53:25;;;;;;;;;;;;;;;8.96;100.00;94883.16;10356931;28;1928;-71
2024/03/04 09:58:29;;;;;;;;;;;;;;;8.96;100.00;94891.19;10354913;28;2136;-68
2024/03/04 10:03:33;;;;;;;;;;;;;;;9.09;100.00;94901.25;10356626;28;2056;-67
2024/03/04 10:08:36;;;;;;;;;;;;;;;8.90;100.00;94911.91;10355119;28;2477;-69
2024/03/04 10:13:39;;;;;;;;;;;;;;;8.82;100.00;94904.47;10353714;28;2252;-68
2024/03/04 10:18:42;;;;;;;;;;;;;;;8.73;100.00;94905.41;10358175;28;2103;-68
2024/03/04 10:23:44;;;;;;;;;;;;;;;8.90;100.00;94914.56;10349746;28;2065;-72
2024/03/04 10:28:47;;;;;;;;;;;;;;;9.05;100.00;94921.69;10362008;28;1901;-68
2024/03/04 10:33:50;;;;;;;;;;;;;;;9.21;100.00;94917.72;10358139;28;2192;-68
2024/03/04 10:38:54;;;;;;;;;;;;;;;9.39;100.00;94918.88;10355527;28;2081;-69
2024/03/04 10:43:57;;;;;;;;;;;;;;;9.35;100.00;94917.88;10359981;28;2245;-72
2024/03/04 10:49:00;;;;;;;;;;;;;;;9.09;100.00;94927.25;10375114;28;2109;-71
2024/03/04 10:54:04;;;;;;;;;;;;;;;9.52;100.00;94922.75;10357751;28;2350;-72
2024/03/04 10:59:07;;;;;;;;;;;;;;;9.61;100.00;94921.03;10371843;28;2032;-76
2024/03/04 11:04:09;;;;;;;;;;;;;;;9.52;100.00;94925.44;10358426;28;2151;-72
2024/03/04 11:09:12;;;;;;;;;;;;;;;9.66;100.00;94918.25;10350411;28;2042;-76
2024/03/04 11:14:15;;;;;;;;;;;;;;;10.09;100.00;94915.53;10347132;28;2066;-71
2024/03/04 11:19:19;;;;;;;;;;;;;;;10.18;100.00;94913.81;10353066;28;2108;-71
2024/03/04 11:24:22;;;;;;;;;;;;;;;10.22;100.00;94912.13;10359406;28;2033;-70
2024/03/04 11:29:25;;;;;;;;;;;;;;;10.31;100.00;94914.16;10365189;28;2070;-71
2024/03/04 11:34:28;;;;;;;;;;;;;;;9.94;100.00;94921.13;10369580;28;2504;-70
2024/03/04 11:39:31;;;;;;;;;;;;;;;9.96;100.00;94927.00;10366792;28;1982;-69
2024/03/04 11:44:35;;;;;;;;;;;;;;;10.19;100.00;94926.13;10355390;28;2293;-71
2024/03/04 11:49:38;;;;;;;;;;;;;;;10.27;100.00;94916.66;10375505;28;2062;-68
2024/03/04 11:54:41;;;;;;;;;;;;;;;10.10;100.00;94917.13;10384233;28;2082;-71
2024/03/04 11:59:45;;;;;;;;;;;;;;;10.13;100.00;94926.50;10361157;28;1902;-69
2024/03/04 12:04:48;;;;;;;;;;;;;;;10.22;100.00;94925.53;10378210;28;2160;-72
2024/03/04 12:09:51;;;;;;;;;;;;;;;10.25;100.00;94922.31;10370098;28;2125;-70
2024/03/04 12:15:11;;;;;;;;;;;;;;;10.62;100.00;94917.97;10359486;28;2188;-71
2024/03/04 12:20:13;;;;;;;;;;;;;;;10.64;100.00;94920.38;10364407;28;2556;-72
2024/03/04 12:25:17;;;;;;;;;;;;;;;10.06;100.00;94926.88;10361444;28;2270;-71
2024/03/04 12:30:19;;;;;;;;;;;;;;;10.13;100.00;94924.63;10362235;28;2053;-70
2024/03/04 12:35:23;;;;;;;;;;;;;;;10.18;100.00;94923.72;10362151;28;2021;-69
2024/03/04 12:40:26;;;;;;;;;;;;;;;10.09;100.00;94928.16;10361197;28;2086;-69
2024/03/04 12:45:29;;;;;;;;;;;;;;;10.06;100.00;94926.88;10359552;28;2114;-69
2024/03/04 12:50:33;;;;;;;;;;;;;;;10.49;100.00;94918.72;10362090;28;2189;-68
2024/03/04 12:55:35;;;;;;;;;;;;;;;10.54;100.00;94921.31;10357460;28;2114;-69
2024/03/04 13:00:38;;;;;;;;;;;;;;;10.61;100.00;94911.00;10372508;28;2076;-68
2024/03/04 13:05:41;;;;;;;;;;;;;;;10.39;100.00;94919.69;10368013;28;2011;-69
2024/03/04 13:10:43;;;;;;;;;;;;;;;10.40;100.00;94923.97;10372743;28;1979;-68
2024/03/04 13:15:50;;;;;;;;;;;;;;;10.51;100.00;94921.91;10351994;28;2502;-71
2024/03/04 13:20:53;;;;;;;;;;;;;;;10.85;100.00;94910.06;10361163;28;2066;-72
2024/03/04 13:25:55;;;;;;;;;;;;;;;10.81;100.00;94921.41;10361985;28;2004;-69
2024/03/04 13:30:58;;;;;;;;;;;;;;;10.64;100.00;94931.91;10367453;28;1973;-72
2024/03/04 13:36:01;;;;;;;;;;;;;;;10.47;100.00;94934.34;10352926;28;2102;-71
2024/03/04 13:41:04;;;;;;;;;;;;;;;10.13;100.00;94926.50;10365451;28;2070;-73
2024/03/04 13:46:07;;;;;;;;;;;;;;;10.08;100.00;94930.06;10361311;28;1936;-77
2024/03/04 13:51:10;;;;;;;;;;;;;;;10.19;100.00;94920.78;10354920;28;2237;-74
2024/03/04 13:56:14;;;;;;;;;;;;;;;10.44;100.00;94924.19;10356023;28;2096;-72
2024/03/04 14:01:17;;;;;;;;;;;;;;;10.88;100.00;94914.84;10361425;28;2125;-78
2024/03/04 14:06:20;;;;;;;;;;;;;;;10.68;100.00;94911.41;10356275;28;2115;-77
2024/03/04 14:11:23;;;;;;;;;;;;;;;10.83;100.00;94908.47;10355065;28;2973;-69
2024/03/04 14:16:25;;;;;;;;;;;;;;;10.99;100.00;94905.50;10357231;28;2043;-70
2024/03/04 14:21:30;;;;;;;;;;;;;;;11.23;100.00;94903.44;10353238;28;2298;-68
2024/03/04 14:26:32;;;;;;;;;;;;;;;10.65;100.00;94906.63;10357201;28;1998;-70
2024/03/04 14:31:35;;;;;;;;;;;;;;;10.64;100.00;94917.69;10360701;28;1973;-69
2024/03/04 14:36:38;;;;;;;;;;;;;;;10.12;100.00;94914.97;10357788;28;1917;-68
2024/03/04 14:41:43;;;;;;;;;;;;;;;10.04;100.00;94920.97;10364435;28;2260;-68
2024/03/04 14:46:47;;;;;;;;;;;;;;;10.03;100.00;94927.44;10356794;28;2002;-68
2024/03/04 14:51:52;;;;;;;;;;;;;;;10.18;100.00;94929.91;10356419;28;2910;-73
2024/03/04 14:56:55;;;;;;;;;;;;;;;9.86;100.00;94927.97;10362925;28;2130;-70
2024/03/04 15:01:57;;;;;;;;;;;;;;;9.36;100.00;94929.41;10362330;28;2035;-72
2024/03/04 15:07:00;;;;;;;;;;;;;;;9.52;100.00;94935.38;10353088;28;1900;-71
2024/03/04 15:12:08;;;;;;;;;;;;;;;9.54;100.00;94928.63;10363968;28;2202;-68
2024/03/04 15:17:12;;;;;;;;;;;;;;;9.80;100.00;94930.97;10353230;28;2095;-69
2024/03/04 15:22:14;;;;;;;;;;;;;;;9.68;100.00;94926.84;10351782;28;2022;-73
2024/03/04 15:27:18;;;;;;;;;;;;;;;9.94;100.00;94931.88;10354788;28;2009;-69
2024/03/04 15:32:21;;;;;;;;;;;;;;;9.62;100.00;94938.72;10347206;28;2165;-68
2024/03/04 15:37:24;;;;;;;;;;;;;;;9.40;100.00;94943.81;10358350;28;2320;-68
2024/03/04 15:42:29;;;;;;;;;;;;;;;9.20;100.00;94948.31;10350554;28;2703;-68
2024/03/04 15:47:34;;;;;;;;;;;;;;;9.25;100.00;94949.34;10350047;28;2046;-68
2024/03/04 15:52:37;;;;;;;;;;;;;;;9.15;100.00;94955.63;10358673;28;2050;-69
2024/03/04 15:57:40;;;;;;;;;;;;;;;9.22;100.00;94958.75;10359220;28;2119;-70
2024/03/04 16:02:43;;;;;;;;;;;;;;;8.99;100.00;94951.50;10351137;28;2050;-69
2024/03/04 16:07:46;;;;;;;;;;;;;;;9.06;100.00;94957.34;10364380;28;2201;-68
2024/03/04 16:12:48;;;;;;;;;;;;;;;9.10;100.00;94959.16;10372345;28;2105;-68
2024/03/04 16:17:52;;;;;;;;;;;;;;;9.07;100.00;94965.09;10373454;28;1944;-68
2024/03/04 16:22:56;;;;;;;;;;;;;;;8.98;100.00;94964.13;10356328;28;2325;-69
2024/03/04 16:27:58;;;;;;;;;;;;;;;9.00;100.00;94969.97;10364794;28;2027;-69
2024/03/04 16:33:03;;;;;;;;;;;;;;;8.99;100.00;94971.06;10361643;28;2063;-69
2024/03/04 16:38:06;;;;;;;;;;;;;;;8.75;100.00;94983.63;10353543;28;1993;-69
2024/03/04 16:43:09;;;;;;;;;;;;;;;8.66;100.00;94981.53;10356863;28;2081;-69
2024/03/04 16:48:12;;;;;;;;;;;;;;;8.66;100.00;94983.44;10361744;28;2105;-70
2024/03/04 16:53:14;;;;;;;;;;;;;;;8.57;100.00;94993.91;10368459;28;2135;-69
2024/03/04 16:58:17;;;;;;;;;;;;;;;8.58;100.00;94995.50;10354872;28;2012;-69
2024/03/04 17:03:22;;;;;;;;;;;;;;;8.54;100.00;95007.88;10360286;28;2296;-68
2024/03/04 17:08:26;;;;;;;;;;;;;;;8.44;100.00;95004.47;10362031;28;1909;-68
2024/03/04 17:13:29;;;;;;;;;;;;;;;8.39;100.00;95007.97;10367683;28;2697;-68
2024/03/04 17:18:32;;;;;;;;;;;;;;;8.36;100.00;95013.91;10355877;28;1994;-68
2024/03/04 17:23:35;;;;;;;;;;;;;;;8.33;100.00;95014.41;10363087;28;1948;-69
2024/03/04 17:28:39;;;;;;;;;;;;;;;8.34;100.00;95024.88;10362301;28;1947;-70
2024/03/04 17:33:42;;;;;;;;;;;;;;;8.32;100.00;95028.88;10358318;28;2006;-68
2024/03/04 17:38:45;;;;;;;;;;;;;;;8.48;100.00;95033.09;10370050;28;2007;-69
2024/03/04 17:43:48;;;;;;;;;;;;;;;8.43;100.00;95029.66;10364567;28;2286;-70
2024/03/04 17:48:55;;;;;;;;;;;;;;;8.30;100.00;95025.69;10366498;28;2113;-70
2024/03/04 17:53:58;;;;;;;;;;;;;;;8.36;100.00;95035.31;10360574;28;2085;-69
2024/03/04 17:59:01;;;;;;;;;;;;;;;8.37;100.00;95044.94;10371157;28;2095;-70
2024/03/04 18:04:04;;;;;;;;;;;;;;;8.44;100.00;95044.66;10350154;28;2287;-69
2024/03/04 18:09:09;;;;;;;;;;;;;;;8.42;100.00;95044.94;10357849;28;2678;-68
2024/03/04 18:14:12;;;;;;;;;;;;;;;8.38;100.00;95059.94;10364201;28;2185;-70
2024/03/04 18:19:15;;;;;;;;;;;;;;;8.24;100.00;95053.56;10356968;28;1940;-71
2024/03/04 18:24:18;;;;;;;;;;;;;;;8.26;100.00;95054.09;10364603;28;2026;-73
2024/03/04 18:29:21;;;;;;;;;;;;;;;8.34;100.00;95061.56;10357511;28;1904;-69
2024/03/04 18:34:26;;;;;;;;;;;;;;;8.24;100.00;95072.31;10359217;28;2058;-70
2024/03/04 18:39:28;;;;;;;;;;;;;;;8.17;100.00;95058.44;10355383;28;2045;-69
2024/03/04 18:44:35;;;;;;;;;;;;;;;8.06;100.00;95061.13;10358459;28;2090;-70
2024/03/04 18:49:38;;;;;;;;;;;;;;;8.10;100.00;95077.47;10356467;28;2074;-75
2024/03/04 18:54:41;;;;;;;;;;;;;;;8.06;100.00;95076.41;10352698;28;2000;-72
2024/03/04 18:59:46;;;;;;;;;;;;;;;8.13;100.00;95076.91;10368606;28;2207;-74
2024/03/04 19:04:51;;;;;;;;;;;;;;;8.10;100.00;95075.59;10359887;28;2601;-69
2024/03/04 19:09:55;;;;;;;;;;;;;;;8.10;100.00;95080.16;10356254;28;2033;-69
2024/03/04 19:14:58;;;;;;;;;;;;;;;8.10;100.00;95082.81;10347153;28;2196;-69
2024/03/04 19:20:03;;;;;;;;;;;;;;;8.13;100.00;95090.28;10353001;28;1952;-71
2024/03/04 19:25:06;;;;;;;;;;;;;;;8.13;100.00;95083.06;10351804;28;2094;-69
2024/03/04 19:30:10;;;;;;;;;;;;;;;8.06;100.00;95100.50;10370184;28;2109;-70
2024/03/04 19:35:13;;;;;;;;;;;;;;;8.00;100.00;95091.69;10356185;28;2125;-69
2024/03/04 19:40:18;;;;;;;;;;;;;;;7.96;100.00;95096.00;10357191;28;2133;-69
2024/03/04 19:45:22;;;;;;;;;;;;;;;7.90;100.00;95102.44;10364382;28;2631;-67
2024/03/04 19:50:27;;;;;;;;;;;;;;;7.95;100.00;95090.88;10372770;28;2007;-68
2024/03/04 19:55:34;;;;;;;;;;;;;;;7.91;100.00;95101.34;10355408;28;2102;-69
2024/03/04 20:00:37;;;;;;;;;;;;;;;7.81;100.00;95096.81;10364805;28;1990;-70
2024/03/04 20:05:40;;;;;;;;;;;;;;;7.74;100.00;95092.84;10363661;28;2025;-69
2024/03/04 20:10:43;;;;;;;;;;;;;;;7.76;100.00;95098.72;10365550;28;2136;-71
2024/03/04 20:15:46;;;;;;;;;;;;;;;7.77;100.00;95089.63;10360289;28;1974;-71
2024/03/04 20:20:48;;;;;;;;;;;;;;;7.56;100.00;95081.66;10357066;28;2133;-67
2024/03/04 20:25:52;;;;;;;;;;;;;;;7.19;100.00;95081.16;10358219;28;2310;-73
2024/03/04 20:30:55;;;;;;;;;;;;;;;6.99;100.00;95081.97;10356708;28;1953;-70
2024/03/04 20:36:00;;;;;;;;;;;;;;;6.77;100.00;95087.59;10356509;28;2002;-68
2024/03/04 20:41:03;;;;;;;;;;;;;;;6.53;100.00;95097.16;10358522;28;1917;-68
2024/03/04 20:46:07;;;;;;;;;;;;;;;6.46;100.00;95103.56;10354525;28;2005;-69
2024/03/04 20:51:12;;;;;;;;;;;;;;;6.44;100.00;95102.25;10355616;28;2090;-69
2024/03/04 20:56:15;;;;;;;;;;;;;;;6.26;100.00;95100.84;10354118;28;2094;-68
2024/03/04 21:01:19;;;;;;;;;;;;;;;6.23;100.00;95109.38;10367371;28;1942;-71
2024/03/04 21:06:22;;;;;;;;;;;;;;;6.41;100.00;95111.56;10355860;28;1989;-69
2024/03/04 21:11:24;;;;;;;;;;;;;;;6.57;100.00;95115.06;10361847;28;2595;-70
2024/03/04 21:16:28;;;;;;;;;;;;;;;6.66;100.00;95112.69;10366466;28;1990;-72
2024/03/04 21:21:31;;;;;;;;;;;;;;;6.77;100.00;95106.28;10362142;28;2041;-69
2024/03/04 21:26:37;;;;;;;;;;;;;;;7.00;100.00;95111.13;10355412;28;1928;-69
2024/03/04 21:31:39;;;;;;;;;;;;;;;7.05;100.00;95097.75;10354769;28;2238;-71
2024/03/04 21:36:42;;;;;;;;;;;;;;;7.09;100.00;95103.38;10361372;28;2058;-70
2024/03/04 21:41:45;;;;;;;;;;;;;;;7.15;100.00;95102.31;10366254;28;2103;-72
2024/03/04 21:46:48;;;;;;;;;;;;;;;7.25;100.00;95101.47;10374353;28;2140;-67
2024/03/04 21:51:51;;;;;;;;;;;;;;;7.18;100.00;95108.97;10365889;28;1830;-69
2024/03/04 21:56:55;;;;;;;;;;;;;;;7.29;100.00;95115.91;10355792;28;2038;-70
2024/03/04 22:01:57;;;;;;;;;;;;;;;7.29;100.00;95121.25;10354729;28;2537;-72
2024/03/04 22:07:00;;;;;;;;;;;;;;;7.29;100.00;95118.59;10358347;28;1925;-69
2024/03/04 22:12:03;;;;;;;;;;;;;;;7.32;100.00;95120.75;10357188;28;2288;-68
2024/03/04 22:17:06;;;;;;;;;;;;;;;7.38;100.00;95125.03;10362109;28;1983;-68
2024/03/04 22:22:08;;;;;;;;;;;;;;;7.44;100.00;95123.13;10361150;28;2036;-69
2024/03/04 22:27:12;;;;;;;;;;;;;;;7.34;100.00;95120.47;10362913;28;1993;-69
2024/03/04 22:32:15;;;;;;;;;;;;;;;7.38;100.00;95122.34;10358042;28;1973;-68
2024/03/04 22:37:18;;;;;;;;;;;;;;;7.42;100.00;95120.72;10360671;28;2145;-70
2024/03/04 22:42:21;;;;;;;;;;;;;;;7.37;100.00;95120.72;10359402;28;2430;-71
2024/03/04 22:47:24;;;;;;;;;;;;;;;7.40;100.00;95122.88;10376051;28;2133;-68
2024/03/04 22:52:26;;;;;;;;;;;;;;;7.37;100.00;95126.06;10363325;28;1991;-69
2024/03/04 22:57:29;;;;;;;;;;;;;;;7.30;100.00;95129.00;10354484;28;1946;-70
2024/03/04 23:02:32;;;;;;;;;;;;;;;7.22;100.00;95124.22;10360799;28;2057;-70
2024/03/04 23:07:35;;;;;;;;;;;;;;;7.31;100.00;95129.81;10359968;28;2035;-68
2024/03/04 23:12:40;;;;;;;;;;;;;;;7.31;100.00;95116.44;10359812;28;2085;-69
2024/03/04 23:17:43;;;;;;;;;;;;;;;7.34;100.00;95125.81;10358333;28;1850;-68
2024/03/04 23:22:45;;;;;;;;;;;;;;;7.30;100.00;95133.56;10354126;28;1921;-67
2024/03/04 23:27:51;;;;;;;;;;;;;;;7.28;100.00;95141.06;10354225;28;1967;-71
2024/03/04 23:32:54;;;;;;;;;;;;;;;7.36;100.00;95145.06;10359373;28;1981;-68
2024/03/04 23:37:56;;;;;;;;;;;;;;;7.38;100.00;95137.56;10355511;28;1919;-66
2024/03/04 23:43:01;;;;;;;;;;;;;;;7.25;100.00;95144.25;10359086;28;2560;-66
2024/03/04 23:48:03;;;;;;;;;;;;;;;7.33;100.00;95151.75;10363400;28;2047;-69
2024/03/04 23:53:06;;;;;;;;;;;;;;;7.39;100.00;95157.91;10359683;28;1940;-67
2024/03/04 23:58:09;;;;;;;;;;;;;;;7.30;100.00;95160.28;10366571;28;2123;-66
